Time;durP1;ratioP1;P1;durP2;ratioP2;P2;SDS_P1;SDS_P2;PMS_P1;PMS_P2;Temp;Humidity;BMP_temperature;BMP_pressure;BME280_temperature;BME280_humidity;BME280_pressure;Samples;Min_cycle;Max_cycle;Signal;HPM_P1;HPM_P2
2022/01/19 00:00:38;;;;;;;8.15;5.88;;;;;;;;;;4995726;28;20037;-85
2022/01/19 00:03:04;;;;;;;11.23;5.20;;;;;;;;;;4994694;28;20035;-83
2022/01/19 00:05:33;;;;;;;9.00;5.05;;;;;;;;;;4996279;28;20048;-84
2022/01/19 00:07:58;;;;;;;7.75;5.53;;;;;;;;;;4996697;28;20045;-82
2022/01/19 00:10:28;;;;;;;8.05;5.78;;;;;;;;;;4999538;28;20019;-83
2022/01/19 00:12:58;;;;;;;8.60;5.72;;;;;;;;;;4997485;28;20026;-83
2022/01/19 00:15:24;;;;;;;8.00;5.35;;;;;;;;;;4996620;28;20129;-84
2022/01/19 00:17:56;;;;;;;9.65;5.20;;;;;;;;;;4995571;28;20038;-83
2022/01/19 00:20:22;;;;;;;9.38;5.40;;;;;;;;;;4995282;28;20022;-84
2022/01/19 00:22:49;;;;;;;10.38;5.68;;;;;;;;;;4996178;28;20030;-84
2022/01/19 00:25:15;;;;;;;9.68;5.38;;;;;;;;;;4996463;28;20026;-84
2022/01/19 00:27:41;;;;;;;8.82;6.05;;;;;;;;;;5006577;28;20128;-83
2022/01/19 00:30:07;;;;;;;12.00;5.65;;;;;;;;;;4993862;28;20125;-84
2022/01/19 00:32:34;;;;;;;8.00;5.30;;;;;;;;;;4995070;28;20085;-84
2022/01/19 00:35:00;;;;;;;7.97;5.10;;;;;;;;;;4995450;28;20094;-83
2022/01/19 00:37:26;;;;;;;7.97;6.13;;;;;;;;;;4993720;28;20045;-84
2022/01/19 00:39:52;;;;;;;8.63;5.85;;;;;;;;;;4994487;28;20023;-84
2022/01/19 00:42:19;;;;;;;12.05;5.90;;;;;;;;;;4994749;28;20401;-85
2022/01/19 00:44:48;;;;;;;9.05;6.32;;;;;;;;;;4995578;28;20061;-84
2022/01/19 00:47:14;;;;;;;10.52;6.25;;;;;;;;;;4993761;28;20026;-83
2022/01/19 00:49:42;;;;;;;10.43;6.15;;;;;;;;;;4995400;28;20038;-84
2022/01/19 00:52:08;;;;;;;12.05;6.22;;;;;;;;;;4995999;28;20442;-84
2022/01/19 00:54:34;;;;;;;12.02;5.88;;;;;;;;;;4995995;28;20038;-83
2022/01/19 00:57:00;;;;;;;9.95;6.50;;;;;;;;;;4995776;28;20058;-83
2022/01/19 00:59:26;;;;;;;13.23;6.13;;;;;;;;;;4996340;28;20037;-83
2022/01/19 01:01:52;;;;;;;10.90;6.13;;;;;;;;;;4994955;28;20109;-83
2022/01/19 01:04:18;;;;;;;7.63;5.25;;;;;;;;;;4993797;28;20117;-83
2022/01/19 01:06:44;;;;;;;11.52;6.53;;;;;;;;;;4994289;28;20030;-84
2022/01/19 01:09:10;;;;;;;10.10;6.22;;;;;;;;;;4996240;28;20076;-83
2022/01/19 01:11:46;;;;;;;9.80;5.93;;;;;;;;;;4995456;28;20031;-84
2022/01/19 01:16:40;;;;;;;10.75;5.10;;;;;;;;;;4993416;28;20399;-83
2022/01/19 01:19:10;;;;;;;8.88;5.50;;;;;;;;;;4993993;28;20398;-84
2022/01/19 01:21:37;;;;;;;15.30;6.65;;;;;;;;;;4978475;28;20030;-84
2022/01/19 01:24:03;;;;;;;13.57;6.45;;;;;;;;;;4995028;28;20026;-84
2022/01/19 01:26:29;;;;;;;10.63;6.18;;;;;;;;;;4993180;28;20022;-84
2022/01/19 01:28:55;;;;;;;10.90;5.72;;;;;;;;;;4994552;28;20030;-83
2022/01/19 01:31:21;;;;;;;11.65;6.05;;;;;;;;;;4995793;28;20113;-83
2022/01/19 01:33:51;;;;;;;13.35;7.03;;;;;;;;;;4993785;28;20045;-85
2022/01/19 01:36:17;;;;;;;11.30;5.72;;;;;;;;;;4993674;28;20030;-84
2022/01/19 01:38:42;;;;;;;15.60;5.72;;;;;;;;;;4993388;28;20065;-84
2022/01/19 01:41:13;;;;;;;12.60;6.55;;;;;;;;;;4993353;28;20394;-84
2022/01/19 01:43:39;;;;;;;10.13;6.57;;;;;;;;;;4993249;28;20025;-84
2022/01/19 01:46:11;;;;;;;10.98;6.50;;;;;;;;;;4996981;28;20026;-83
2022/01/19 01:48:43;;;;;;;13.27;6.85;;;;;;;;;;4978316;28;20034;-84
2022/01/19 01:53:57;;;;;;;10.90;5.65;;;;;;;;;;4999194;28;20541;-84
2022/01/19 01:56:24;;;;;;;10.80;6.55;;;;;;;;;;4997941;28;20034;-84
2022/01/19 01:58:50;;;;;;;9.25;6.20;;;;;;;;;;4999173;28;20363;-85
2022/01/19 02:01:19;;;;;;;10.95;6.90;;;;;;;;;;4998858;28;20023;-84
2022/01/19 02:03:46;;;;;;;11.43;6.43;;;;;;;;;;4997315;28;20470;-86
2022/01/19 02:15:50;;;;;;;12.82;6.85;;;;;;;;;;4998467;28;20054;-82
2022/01/19 02:22:59;;;;;;;9.55;5.65;;;;;;;;;;4998746;28;20041;-83
2022/01/19 02:25:35;;;;;;;15.73;6.60;;;;;;;;;;4999449;28;20060;-84
2022/01/19 02:41:37;;;;;;;15.57;6.25;;;;;;;;;;4983503;28;20037;-83
2022/01/19 02:44:04;;;;;;;11.00;6.18;;;;;;;;;;4996514;28;20033;-85
2022/01/19 02:49:16;;;;;;;13.80;6.82;;;;;;;;;;4984566;28;20066;-84
2022/01/19 02:51:47;;;;;;;11.05;6.25;;;;;;;;;;4999957;28;20030;-84
2022/01/19 02:54:13;;;;;;;10.23;6.72;;;;;;;;;;5000958;28;20022;-84
2022/01/19 02:56:42;;;;;;;12.65;6.63;;;;;;;;;;4996089;28;20065;-84
2022/01/19 02:59:16;;;;;;;12.50;6.50;;;;;;;;;;4996483;28;20084;-84
2022/01/19 03:09:41;;;;;;;13.23;7.30;;;;;;;;;;4997589;28;20390;-84
2022/01/19 03:12:07;;;;;;;12.05;6.80;;;;;;;;;;4997340;28;20026;-84
2022/01/19 03:14:33;;;;;;;12.70;7.03;;;;;;;;;;4997286;28;20482;-83
2022/01/19 03:16:59;;;;;;;14.75;7.70;;;;;;;;;;4995624;28;20185;-83
2022/01/19 03:19:27;;;;;;;13.02;7.00;;;;;;;;;;4996164;28;20070;-85
2022/01/19 03:21:54;;;;;;;15.90;7.32;;;;;;;;;;4996712;28;20367;-82
2022/01/19 03:24:19;;;;;;;8.73;6.25;;;;;;;;;;4997005;28;20031;-83
2022/01/19 03:26:46;;;;;;;11.10;6.60;;;;;;;;;;4990073;28;20110;-82
2022/01/19 03:29:13;;;;;;;9.85;5.90;;;;;;;;;;4996900;28;20026;-85
2022/01/19 03:31:39;;;;;;;10.30;6.25;;;;;;;;;;4997179;28;20474;-84
2022/01/19 03:34:06;;;;;;;15.13;7.35;;;;;;;;;;4997421;28;20444;-85
2022/01/19 03:36:32;;;;;;;13.13;7.00;;;;;;;;;;4996875;28;20025;-85
2022/01/19 03:38:58;;;;;;;12.48;6.57;;;;;;;;;;4997357;28;20091;-83
2022/01/19 03:41:24;;;;;;;15.77;7.88;;;;;;;;;;4997020;28;20047;-82
2022/01/19 03:43:50;;;;;;;18.33;7.80;;;;;;;;;;4995622;28;20022;-83
2022/01/19 03:46:16;;;;;;;14.93;7.57;;;;;;;;;;4994953;28;20026;-84
2022/01/19 03:48:54;;;;;;;16.75;7.55;;;;;;;;;;4996860;28;20050;-84
2022/01/19 03:51:20;;;;;;;13.80;7.55;;;;;;;;;;4995280;28;20018;-83
2022/01/19 03:53:46;;;;;;;16.35;7.68;;;;;;;;;;4995368;28;20026;-84
2022/01/19 03:56:15;;;;;;;17.65;7.72;;;;;;;;;;4996117;28;20033;-83
2022/01/19 03:58:41;;;;;;;16.48;7.97;;;;;;;;;;4995166;28;20029;-84
2022/01/19 04:01:08;;;;;;;11.25;7.88;;;;;;;;;;4996128;28;20034;-82
2022/01/19 04:04:02;;;;;;;14.25;8.43;;;;;;;;;;4996502;28;20025;-82
2022/01/19 04:06:30;;;;;;;15.57;8.05;;;;;;;;;;4993619;28;20098;-83
2022/01/19 04:08:56;;;;;;;11.02;6.57;;;;;;;;;;4994999;28;20092;-84
2022/01/19 04:11:23;;;;;;;18.50;7.68;;;;;;;;;;4996059;28;20094;-82
2022/01/19 04:16:31;;;;;;;17.15;7.40;;;;;;;;;;4996485;28;20037;-83
2022/01/19 04:19:23;;;;;;;13.77;7.72;;;;;;;;;;4997493;28;20048;-83
2022/01/19 04:21:49;;;;;;;15.52;7.57;;;;;;;;;;4993885;28;20367;-84
2022/01/19 04:24:16;;;;;;;16.85;8.82;;;;;;;;;;4997046;28;20022;-84
2022/01/19 04:26:43;;;;;;;17.73;8.25;;;;;;;;;;5006327;28;20026;-84
2022/01/19 04:29:09;;;;;;;15.13;7.65;;;;;;;;;;4997007;28;20110;-84
2022/01/19 04:31:35;;;;;;;14.95;8.05;;;;;;;;;;4996612;28;20065;-84
2022/01/19 04:34:02;;;;;;;15.88;8.25;;;;;;;;;;4997118;28;20141;-84
2022/01/19 04:36:58;;;;;;;13.30;7.90;;;;;;;;;;4995753;28;20085;-84
2022/01/19 05:06:04;;;;;;;16.65;8.82;;;;;;;;;;4993750;28;20042;-81
2022/01/19 05:13:51;;;;;;;19.48;10.43;;;;;;;;;;4996581;28;20452;-83
2022/01/19 05:16:19;;;;;;;13.75;8.65;;;;;;;;;;4995408;28;20375;-83
2022/01/19 05:18:45;;;;;;;22.23;9.55;;;;;;;;;;4995750;28;20030;-83
2022/01/19 05:21:11;;;;;;;18.50;9.55;;;;;;;;;;4995652;28;20022;-84
2022/01/19 05:23:37;;;;;;;19.85;11.30;;;;;;;;;;4995748;28;20105;-83
2022/01/19 05:26:03;;;;;;;20.23;9.77;;;;;;;;;;4994774;28;20022;-83
2022/01/19 05:28:29;;;;;;;17.58;9.05;;;;;;;;;;4992200;28;20026;-84
2022/01/19 05:30:55;;;;;;;13.73;8.20;;;;;;;;;;4992231;28;20018;-84
2022/01/19 05:33:21;;;;;;;13.98;8.57;;;;;;;;;;4993048;28;20029;-84
2022/01/19 05:35:47;;;;;;;16.58;9.55;;;;;;;;;;4995404;28;20022;-84
2022/01/19 05:38:13;;;;;;;21.17;8.55;;;;;;;;;;4995151;28;20116;-83
2022/01/19 05:40:39;;;;;;;14.18;7.45;;;;;;;;;;4994425;28;20473;-85
2022/01/19 05:43:05;;;;;;;15.02;8.45;;;;;;;;;;4994412;28;20038;-83
2022/01/19 05:45:31;;;;;;;17.90;8.27;;;;;;;;;;4993757;28;20038;-84
2022/01/19 05:47:57;;;;;;;14.02;8.93;;;;;;;;;;4995227;28;20089;-84
2022/01/19 05:50:24;;;;;;;19.75;9.07;;;;;;;;;;4995194;28;20025;-84
2022/01/19 05:52:50;;;;;;;15.80;8.77;;;;;;;;;;4995475;28;20554;-84
2022/01/19 05:55:16;;;;;;;17.73;9.05;;;;;;;;;;4993896;28;20023;-83
2022/01/19 05:57:42;;;;;;;19.35;9.60;;;;;;;;;;4995425;28;20091;-84
2022/01/19 06:00:09;;;;;;;19.95;9.57;;;;;;;;;;4995989;28;20181;-84
2022/01/19 06:02:35;;;;;;;19.58;9.90;;;;;;;;;;4996489;28;20459;-84
2022/01/19 06:05:01;;;;;;;17.38;10.38;;;;;;;;;;4994052;28;20077;-84
2022/01/19 06:07:39;;;;;;;16.67;9.00;;;;;;;;;;4994993;28;20481;-84
2022/01/19 06:10:08;;;;;;;20.08;11.10;;;;;;;;;;4994203;28;20083;-84
2022/01/19 06:12:34;;;;;;;19.63;10.68;;;;;;;;;;4996195;28;20072;-84
2022/01/19 06:15:00;;;;;;;18.30;10.00;;;;;;;;;;4995583;28;20431;-84
2022/01/19 06:17:26;;;;;;;19.48;10.13;;;;;;;;;;4994077;28;20569;-84
2022/01/19 06:19:53;;;;;;;23.05;10.13;;;;;;;;;;4999974;28;20038;-84
2022/01/19 06:22:20;;;;;;;17.48;10.73;;;;;;;;;;5001150;28;20034;-84
2022/01/19 06:24:46;;;;;;;20.10;10.32;;;;;;;;;;5007580;28;20034;-84
2022/01/19 06:27:12;;;;;;;18.42;10.13;;;;;;;;;;4998521;28;20037;-84
2022/01/19 06:29:38;;;;;;;17.77;9.43;;;;;;;;;;4999044;28;20446;-84
2022/01/19 06:32:04;;;;;;;18.38;9.73;;;;;;;;;;5003752;28;20074;-83
2022/01/19 06:34:30;;;;;;;18.92;9.65;;;;;;;;;;5015717;28;20042;-85
2022/01/19 06:36:56;;;;;;;17.85;9.93;;;;;;;;;;5019180;28;20026;-84
2022/01/19 06:39:22;;;;;;;26.63;11.95;;;;;;;;;;5014625;28;20061;-85
2022/01/19 06:41:48;;;;;;;21.42;12.32;;;;;;;;;;5011136;28;20097;-84
2022/01/19 06:44:15;;;;;;;20.85;10.77;;;;;;;;;;5009160;28;20034;-85
2022/01/19 06:46:42;;;;;;;19.42;10.93;;;;;;;;;;5007936;28;20026;-84
2022/01/19 06:49:09;;;;;;;20.65;10.40;;;;;;;;;;5006867;28;20067;-84
2022/01/19 06:51:35;;;;;;;17.52;9.75;;;;;;;;;;5004347;28;20032;-85
2022/01/19 06:54:01;;;;;;;17.40;9.70;;;;;;;;;;5004424;28;20030;-84
2022/01/19 06:56:27;;;;;;;21.83;11.63;;;;;;;;;;5003624;28;20026;-85
2022/01/19 06:58:53;;;;;;;22.15;10.27;;;;;;;;;;5005395;28;20046;-84
2022/01/19 07:01:19;;;;;;;19.20;9.88;;;;;;;;;;5002786;28;20053;-84
2022/01/19 07:03:46;;;;;;;23.50;11.13;;;;;;;;;;5005076;28;20375;-83
2022/01/19 07:06:12;;;;;;;25.10;12.30;;;;;;;;;;5003942;28;20026;-84
2022/01/19 07:08:41;;;;;;;23.52;13.40;;;;;;;;;;5003714;28;20026;-84
2022/01/19 07:11:07;;;;;;;27.45;14.82;;;;;;;;;;5003275;28;20022;-83
2022/01/19 07:13:33;;;;;;;28.00;14.00;;;;;;;;;;5001470;28;20037;-83
2022/01/19 07:15:59;;;;;;;28.17;12.63;;;;;;;;;;5001401;28;20027;-82
2022/01/19 07:18:25;;;;;;;23.52;12.50;;;;;;;;;;5002716;28;20065;-83
2022/01/19 07:20:51;;;;;;;18.92;11.32;;;;;;;;;;5003793;28;20102;-83
2022/01/19 07:23:17;;;;;;;22.08;12.20;;;;;;;;;;5001451;28;20503;-84
2022/01/19 07:25:44;;;;;;;25.77;12.88;;;;;;;;;;5002550;28;20122;-84
2022/01/19 07:28:11;;;;;;;29.35;14.32;;;;;;;;;;5005591;28;20030;-84
2022/01/19 07:30:37;;;;;;;33.70;15.00;;;;;;;;;;5004806;28;20026;-84
2022/01/19 07:33:04;;;;;;;25.00;13.50;;;;;;;;;;5002698;28;20101;-84
2022/01/19 07:35:30;;;;;;;36.20;15.15;;;;;;;;;;5001753;28;20038;-82
2022/01/19 07:37:56;;;;;;;31.42;15.13;;;;;;;;;;5002754;28;20023;-84
2022/01/19 07:40:22;;;;;;;28.83;13.63;;;;;;;;;;5001920;28;20070;-84
2022/01/19 07:42:48;;;;;;;32.40;13.70;;;;;;;;;;5001064;28;20517;-83
2022/01/19 07:45:15;;;;;;;28.60;13.48;;;;;;;;;;4999844;28;20046;-83
2022/01/19 07:47:41;;;;;;;29.45;14.82;;;;;;;;;;4999958;28;20089;-84
2022/01/19 07:50:07;;;;;;;32.28;15.35;;;;;;;;;;5000459;28;20027;-84
2022/01/19 07:52:33;;;;;;;32.17;15.30;;;;;;;;;;5002641;28;20027;-83
2022/01/19 07:54:59;;;;;;;35.90;15.50;;;;;;;;;;5000822;28;20033;-83
2022/01/19 07:57:25;;;;;;;24.15;13.60;;;;;;;;;;5002104;28;20026;-83
2022/01/19 07:59:51;;;;;;;23.33;12.20;;;;;;;;;;4998751;28;20023;-83
2022/01/19 08:02:18;;;;;;;29.73;13.88;;;;;;;;;;4996725;28;20030;-85
2022/01/19 08:04:44;;;;;;;28.02;14.55;;;;;;;;;;4994768;28;20397;-85
2022/01/19 08:07:10;;;;;;;31.95;14.93;;;;;;;;;;4996907;28;20022;-84
2022/01/19 08:09:36;;;;;;;36.47;15.25;;;;;;;;;;4997212;28;20058;-85
2022/01/19 08:12:03;;;;;;;38.50;16.65;;;;;;;;;;4996366;28;20026;-84
2022/01/19 08:14:29;;;;;;;36.53;17.85;;;;;;;;;;4999909;28;20033;-84
2022/01/19 08:16:55;;;;;;;33.03;16.10;;;;;;;;;;4998713;28;20113;-85
2022/01/19 08:19:22;;;;;;;33.78;16.35;;;;;;;;;;4999957;28;20137;-84
2022/01/19 08:21:48;;;;;;;36.90;17.92;;;;;;;;;;5004498;28;20026;-85
2022/01/19 08:24:15;;;;;;;43.75;18.42;;;;;;;;;;5000518;28;20042;-85
2022/01/19 08:26:41;;;;;;;40.70;19.85;;;;;;;;;;4995682;28;20117;-85
2022/01/19 08:29:07;;;;;;;38.80;17.77;;;;;;;;;;4996015;28;20082;-84
2022/01/19 08:31:33;;;;;;;38.85;19.45;;;;;;;;;;4995611;28;20053;-84
2022/01/19 08:34:00;;;;;;;44.33;20.17;;;;;;;;;;4998557;28;20022;-85
2022/01/19 08:36:27;;;;;;;44.55;18.92;;;;;;;;;;4996589;28;20030;-85
2022/01/19 08:38:54;;;;;;;44.40;19.50;;;;;;;;;;4998368;28;20020;-83
2022/01/19 08:41:20;;;;;;;38.13;18.42;;;;;;;;;;4999653;28;20038;-84
2022/01/19 08:43:46;;;;;;;38.38;19.50;;;;;;;;;;4997509;28;20086;-86
2022/01/19 08:46:12;;;;;;;38.28;18.85;;;;;;;;;;4996827;28;20588;-86
2022/01/19 08:48:38;;;;;;;41.97;19.33;;;;;;;;;;4996914;28;20045;-87
2022/01/19 08:51:04;;;;;;;37.53;18.42;;;;;;;;;;4997481;28;20094;-85
2022/01/19 08:53:31;;;;;;;35.63;17.92;;;;;;;;;;4997614;28;20034;-86
2022/01/19 08:55:57;;;;;;;44.95;17.30;;;;;;;;;;4998284;28;20030;-86
2022/01/19 08:58:23;;;;;;;41.08;17.90;;;;;;;;;;4996298;28;20033;-86
2022/01/19 09:00:49;;;;;;;35.83;18.50;;;;;;;;;;4996610;28;20052;-86
2022/01/19 09:03:16;;;;;;;35.92;17.88;;;;;;;;;;4997175;28;20022;-85
2022/01/19 09:05:42;;;;;;;33.50;17.75;;;;;;;;;;4997076;28;20027;-82
2022/01/19 09:08:09;;;;;;;38.15;18.77;;;;;;;;;;4996603;28;20022;-86
2022/01/19 09:10:35;;;;;;;34.55;17.92;;;;;;;;;;4994935;28;20030;-85
2022/01/19 09:13:01;;;;;;;37.15;17.77;;;;;;;;;;4994498;28;20027;-82
2022/01/19 09:15:27;;;;;;;33.45;18.05;;;;;;;;;;4997559;28;20125;-84
2022/01/19 09:17:56;;;;;;;36.92;18.77;;;;;;;;;;4998810;28;20411;-84
2022/01/19 09:20:22;;;;;;;36.92;19.17;;;;;;;;;;4997006;28;20445;-85
2022/01/19 09:22:50;;;;;;;44.55;19.70;;;;;;;;;;4997168;28;20023;-84
2022/01/19 09:25:16;;;;;;;37.45;18.02;;;;;;;;;;4995801;28;20023;-84
2022/01/19 09:27:43;;;;;;;36.17;18.85;;;;;;;;;;4996456;28;20026;-86
2022/01/19 09:30:14;;;;;;;38.33;17.85;;;;;;;;;;4995990;28;20026;-84
2022/01/19 09:32:41;;;;;;;38.45;18.77;;;;;;;;;;4982560;28;20042;-84
2022/01/19 09:35:09;;;;;;;39.10;18.80;;;;;;;;;;4982006;28;20076;-85
2022/01/19 09:37:36;;;;;;;41.35;19.45;;;;;;;;;;4984753;28;20106;-84
2022/01/19 09:40:03;;;;;;;40.83;18.27;;;;;;;;;;4983966;28;20185;-84
2022/01/19 09:42:29;;;;;;;36.03;17.52;;;;;;;;;;4995817;28;20123;-85
2022/01/19 09:44:55;;;;;;;39.42;18.27;;;;;;;;;;4997400;28;20037;-84
2022/01/19 09:47:21;;;;;;;41.97;19.23;;;;;;;;;;5000786;28;20094;-84
2022/01/19 09:49:47;;;;;;;40.17;19.58;;;;;;;;;;4997211;28;20058;-84
2022/01/19 09:52:13;;;;;;;36.40;17.90;;;;;;;;;;4997375;28;20041;-84
2022/01/19 09:54:39;;;;;;;40.17;19.17;;;;;;;;;;4997707;28;20478;-84
2022/01/19 09:57:05;;;;;;;42.97;19.23;;;;;;;;;;4997412;28;20026;-84
2022/01/19 09:59:31;;;;;;;38.05;18.10;;;;;;;;;;4996723;28;20034;-84
2022/01/19 10:02:06;;;;;;;38.65;18.00;;;;;;;;;;4997150;28;20034;-84
2022/01/19 10:04:34;;;;;;;38.47;18.73;;;;;;;;;;4997624;28;20038;-84
2022/01/19 10:07:19;;;;;;;37.75;18.38;;;;;;;;;;4999585;28;20141;-84
2022/01/19 10:09:53;;;;;;;40.33;18.17;;;;;;;;;;5000247;28;20038;-84
2022/01/19 10:18:08;;;;;;;37.95;17.65;;;;;;;;;;4999157;28;20096;-84
2022/01/19 10:20:34;;;;;;;39.58;18.70;;;;;;;;;;4999687;28;20030;-84
2022/01/19 10:23:00;;;;;;;41.28;17.98;;;;;;;;;;5000055;28;20093;-83
2022/01/19 10:25:46;;;;;;;35.65;18.15;;;;;;;;;;5000710;28;20030;-83
2022/01/19 10:28:12;;;;;;;39.95;18.35;;;;;;;;;;4999303;28;20029;-84
2022/01/19 10:30:38;;;;;;;38.35;17.67;;;;;;;;;;5001549;28;20030;-84
2022/01/19 10:33:04;;;;;;;40.33;17.00;;;;;;;;;;5002608;28;20018;-84
2022/01/19 10:35:38;;;;;;;32.72;16.27;;;;;;;;;;5001571;28;20048;-84
2022/01/19 10:38:11;;;;;;;36.05;16.65;;;;;;;;;;5000400;28;20022;-84
2022/01/19 10:40:38;;;;;;;36.28;17.27;;;;;;;;;;5000246;28;20026;-85
2022/01/19 10:43:23;;;;;;;33.63;16.20;;;;;;;;;;5011792;28;20038;-85
2022/01/19 10:45:49;;;;;;;39.35;16.50;;;;;;;;;;5017993;28;20097;-85
2022/01/19 10:48:29;;;;;;;40.10;17.27;;;;;;;;;;5014386;28;20035;-86
2022/01/19 10:51:05;;;;;;;42.90;18.13;;;;;;;;;;5015664;28;20044;-85
2022/01/19 10:53:31;;;;;;;34.95;16.95;;;;;;;;;;5003178;28;20031;-85
2022/01/19 10:55:57;;;;;;;39.80;17.77;;;;;;;;;;5001136;28;20101;-85
2022/01/19 10:58:23;;;;;;;39.58;18.08;;;;;;;;;;5008319;28;20030;-85
2022/01/19 11:00:50;;;;;;;40.90;17.33;;;;;;;;;;5010694;28;20041;-85
2022/01/19 11:03:17;;;;;;;40.58;18.40;;;;;;;;;;5009959;28;20030;-86
2022/01/19 11:05:47;;;;;;;35.42;17.73;;;;;;;;;;5010591;28;20121;-86
2022/01/19 11:08:14;;;;;;;41.30;18.63;;;;;;;;;;5008215;28;20027;-86
2022/01/19 11:10:40;;;;;;;39.10;17.13;;;;;;;;;;5006758;28;20084;-85
2022/01/19 11:13:13;;;;;;;40.63;18.58;;;;;;;;;;5006383;28;20026;-85
2022/01/19 11:15:39;;;;;;;42.75;18.63;;;;;;;;;;5005568;28;20026;-83
2022/01/19 11:18:05;;;;;;;40.53;17.85;;;;;;;;;;5003328;28;20038;-83
2022/01/19 11:20:40;;;;;;;37.33;18.08;;;;;;;;;;5002339;28;20133;-84
2022/01/19 11:23:09;;;;;;;35.05;17.02;;;;;;;;;;5002450;28;20053;-84
2022/01/19 11:25:53;;;;;;;38.15;17.60;;;;;;;;;;5001718;28;20026;-83
2022/01/19 11:28:33;;;;;;;39.33;17.90;;;;;;;;;;5001642;28;20089;-83
2022/01/19 11:31:00;;;;;;;42.47;18.02;;;;;;;;;;5002313;28;20022;-84
2022/01/19 11:33:27;;;;;;;42.60;19.00;;;;;;;;;;5001121;28;20026;-83
2022/01/19 11:35:55;;;;;;;39.00;17.33;;;;;;;;;;5001493;28;20026;-84
2022/01/19 11:38:33;;;;;;;36.90;18.17;;;;;;;;;;5000303;28;20046;-84
2022/01/19 11:41:00;;;;;;;38.53;17.65;;;;;;;;;;5001845;28;20031;-84
2022/01/19 11:43:29;;;;;;;37.35;16.83;;;;;;;;;;5002833;28;20022;-86
2022/01/19 11:45:55;;;;;;;37.88;17.80;;;;;;;;;;5003112;28;20124;-87
2022/01/19 11:48:28;;;;;;;36.17;17.25;;;;;;;;;;5001622;28;20235;-86
2022/01/19 11:50:56;;;;;;;40.35;18.63;;;;;;;;;;5015227;28;20054;-87
2022/01/19 11:53:24;;;;;;;45.33;19.15;;;;;;;;;;5017964;28;20045;-84
2022/01/19 11:56:03;;;;;;;41.95;18.85;;;;;;;;;;5017286;28;20462;-85
2022/01/19 11:58:29;;;;;;;46.53;19.02;;;;;;;;;;5003679;28;20371;-84
2022/01/19 12:00:56;;;;;;;40.10;19.17;;;;;;;;;;5007143;28;20030;-84
2022/01/19 12:03:27;;;;;;;44.65;20.50;;;;;;;;;;5005649;28;20026;-86
2022/01/19 12:05:53;;;;;;;;;;;;;;;;;;5002983;28;20018;-85
2022/01/19 12:08:19;;;;;;;42.60;18.67;;;;;;;;;;5004415;28;19945;-86
2022/01/19 12:10:48;;;;;;;46.53;20.52;;;;;;;;;;5003704;28;20038;-85
2022/01/19 12:13:55;;;;;;;44.33;18.70;;;;;;;;;;5004809;28;20041;-86
2022/01/19 12:18:52;;;;;;;43.15;19.00;;;;;;;;;;5005093;28;20046;-86
2022/01/19 12:21:21;;;;;;;48.78;20.25;;;;;;;;;;5004319;28;20018;-85
2022/01/19 12:23:47;;;;;;;43.97;19.17;;;;;;;;;;5006345;28;20057;-86
2022/01/19 12:26:14;;;;;;;43.60;18.75;;;;;;;;;;5007945;28;20053;-85
2022/01/19 12:28:45;;;;;;;47.63;21.00;;;;;;;;;;5010662;28;20125;-85
2022/01/19 12:31:30;;;;;;;42.95;19.00;;;;;;;;;;5000226;28;20026;-85
2022/01/19 12:34:07;;;;;;;48.78;20.38;;;;;;;;;;4996144;28;20038;-84
2022/01/19 12:36:51;;;;;;;42.53;18.63;;;;;;;;;;4996429;28;20402;-83
2022/01/19 12:39:27;;;;;;;46.35;18.75;;;;;;;;;;4995276;28;20034;-83
2022/01/19 12:41:56;;;;;;;50.22;19.40;;;;;;;;;;4996319;28;20406;-82
2022/01/19 12:44:42;;;;;;;49.70;18.70;;;;;;;;;;4996978;28;20053;-83
2022/01/19 12:47:28;;;;;;;43.78;19.58;;;;;;;;;;4995120;28;20057;-83
2022/01/19 12:49:54;;;;;;;45.65;19.85;;;;;;;;;;5000522;28;20030;-84
2022/01/19 12:52:22;;;;;;;47.03;19.33;;;;;;;;;;5000713;28;20031;-83
2022/01/19 12:54:48;;;;;;;56.70;21.65;;;;;;;;;;4995099;28;20390;-83
2022/01/19 12:57:17;;;;;;;55.58;20.30;;;;;;;;;;4995303;28;20096;-83
2022/01/19 12:59:44;;;;;;;50.00;19.90;;;;;;;;;;4996372;28;20027;-83
2022/01/19 13:02:14;;;;;;;53.35;22.58;;;;;;;;;;4997158;28;20031;-85
2022/01/19 13:04:41;;;;;;;49.28;20.27;;;;;;;;;;4996149;28;20027;-84
2022/01/19 13:07:27;;;;;;;60.90;21.90;;;;;;;;;;4999773;28;20032;-84
2022/01/19 13:10:05;;;;;;;49.25;21.13;;;;;;;;;;4994781;28;20401;-85
2022/01/19 13:12:44;;;;;;;52.50;21.05;;;;;;;;;;4994248;28;20025;-84
2022/01/19 13:15:10;;;;;;;45.47;19.73;;;;;;;;;;4995809;28;20026;-85
2022/01/19 13:17:43;;;;;;;50.72;21.27;;;;;;;;;;4999723;28;20042;-84
2022/01/19 13:20:11;;;;;;;52.35;20.48;;;;;;;;;;4994773;28;20117;-84
2022/01/19 13:22:44;;;;;;;54.90;20.15;;;;;;;;;;4995024;28;20023;-84
2022/01/19 13:25:22;;;;;;;50.17;20.40;;;;;;;;;;4998644;28;20374;-85
2022/01/19 13:27:48;;;;;;;51.55;21.08;;;;;;;;;;4994461;28;20033;-85
2022/01/19 13:30:15;;;;;;;48.42;18.55;;;;;;;;;;4993868;28;20030;-86
2022/01/19 13:32:41;;;;;;;50.60;20.63;;;;;;;;;;4995439;28;20052;-85
2022/01/19 13:35:09;;;;;;;56.22;21.33;;;;;;;;;;4995707;28;20364;-85
2022/01/19 13:37:37;;;;;;;53.35;19.33;;;;;;;;;;4995370;28;20034;-85
2022/01/19 13:40:08;;;;;;;52.88;21.52;;;;;;;;;;4995336;28;20045;-84
2022/01/19 13:42:40;;;;;;;45.08;18.02;;;;;;;;;;4996272;28;20041;-85
2022/01/19 13:45:11;;;;;;;51.60;21.33;;;;;;;;;;4996609;28;20438;-84
2022/01/19 13:47:55;;;;;;;59.38;20.98;;;;;;;;;;4999941;28;20343;-83
2022/01/19 13:50:22;;;;;;;50.97;20.35;;;;;;;;;;5001526;28;20710;-83
2022/01/19 13:52:48;;;;;;;54.60;20.55;;;;;;;;;;5000103;28;20023;-84
2022/01/19 13:55:22;;;;;;;52.85;20.10;;;;;;;;;;4999847;28;20019;-84
2022/01/19 13:57:48;;;;;;;60.03;22.73;;;;;;;;;;4997962;28;20041;-84
2022/01/19 14:00:20;;;;;;;52.92;20.65;;;;;;;;;;4998348;28;20045;-83
2022/01/19 14:02:58;;;;;;;58.55;21.80;;;;;;;;;;4999197;28;20034;-83
2022/01/19 14:05:35;;;;;;;58.42;22.55;;;;;;;;;;4999827;28;20033;-84
2022/01/19 14:08:01;;;;;;;58.17;24.88;;;;;;;;;;4999314;28;20029;-84
2022/01/19 14:10:38;;;;;;;55.22;21.45;;;;;;;;;;4998142;28;20030;-84
2022/01/19 14:13:22;;;;;;;49.60;19.77;;;;;;;;;;4998916;28;20106;-84
2022/01/19 14:15:48;;;;;;;50.28;20.88;;;;;;;;;;4997640;28;20027;-84
2022/01/19 14:18:15;;;;;;;58.63;21.48;;;;;;;;;;5044179;23;20041;-86
2022/01/19 14:20:40;;;;;;;51.60;19.25;;;;;;;;;;5015455;28;20035;-84
2022/01/19 14:23:11;;;;;;;55.58;21.40;;;;;;;;;;5015249;28;20107;-85
2022/01/19 14:25:38;;;;;;;54.72;20.92;;;;;;;;;;5012732;28;20501;-85
2022/01/19 14:28:12;;;;;;;58.38;21.77;;;;;;;;;;4999405;28;20030;-83
2022/01/19 14:30:41;;;;;;;56.55;23.77;;;;;;;;;;4999387;28;20027;-84
2022/01/19 14:33:09;;;;;;;57.65;22.70;;;;;;;;;;4999333;28;20046;-87
2022/01/19 14:35:38;;;;;;;59.83;22.67;;;;;;;;;;4987083;28;20026;-86
2022/01/19 14:38:14;;;;;;;64.88;22.88;;;;;;;;;;4976984;28;20054;-86
2022/01/19 14:40:43;;;;;;;55.28;21.35;;;;;;;;;;4978844;28;20053;-85
2022/01/19 14:43:14;;;;;;;63.25;21.52;;;;;;;;;;4978952;28;20033;-86
2022/01/19 14:45:49;;;;;;;56.25;20.70;;;;;;;;;;4977530;28;20034;-86
2022/01/19 14:48:18;;;;;;;57.17;21.90;;;;;;;;;;4978250;28;20031;-85
2022/01/19 14:50:44;;;;;;;56.35;21.73;;;;;;;;;;4976525;28;20034;-84
2022/01/19 14:53:10;;;;;;;57.00;23.02;;;;;;;;;;4989842;28;20026;-85
2022/01/19 14:55:38;;;;;;;57.67;22.25;;;;;;;;;;4980456;28;20078;-86
2022/01/19 14:58:05;;;;;;;60.47;21.17;;;;;;;;;;4979443;28;20026;-82
2022/01/19 15:00:32;;;;;;;55.20;21.98;;;;;;;;;;4979966;28;20081;-84
2022/01/19 15:03:02;;;;;;;50.35;19.90;;;;;;;;;;4981927;28;20058;-85
2022/01/19 15:05:30;;;;;;;59.28;22.15;;;;;;;;;;4980402;28;20042;-87
2022/01/19 15:07:56;;;;;;;56.55;21.15;;;;;;;;;;4988735;28;20057;-88
2022/01/19 15:10:22;;;;;;;57.50;22.15;;;;;;;;;;5006840;28;20027;-88
2022/01/19 15:12:52;;;;;;;59.92;23.58;;;;;;;;;;4987672;28;20137;-84
2022/01/19 15:15:21;;;;;;;55.40;22.13;;;;;;;;;;4976292;28;20019;-83
2022/01/19 15:17:47;;;;;;;61.83;21.50;;;;;;;;;;4989185;28;20042;-83
2022/01/19 15:20:13;;;;;;;54.47;21.42;;;;;;;;;;4976705;28;20038;-85
2022/01/19 15:22:39;;;;;;;61.63;23.27;;;;;;;;;;4977445;28;20106;-83
2022/01/19 15:25:05;;;;;;;65.05;20.77;;;;;;;;;;4975745;28;20125;-83
2022/01/19 15:27:31;;;;;;;61.08;21.15;;;;;;;;;;4992385;28;20038;-84
2022/01/19 15:29:57;;;;;;;56.13;20.85;;;;;;;;;;4995177;28;20029;-84
2022/01/19 15:32:23;;;;;;;53.08;20.67;;;;;;;;;;4998776;28;20500;-82
2022/01/19 15:34:50;;;;;;;50.03;21.88;;;;;;;;;;4989837;28;20023;-86
2022/01/19 15:37:15;;;;;;;58.53;21.42;;;;;;;;;;4977518;28;20074;-86
2022/01/19 15:39:46;;;;;;;51.03;22.77;;;;;;;;;;4976761;28;20034;-82
2022/01/19 15:42:13;;;;;;;45.22;18.60;;;;;;;;;;4975966;28;20521;-84
2022/01/19 15:44:39;;;;;;;55.03;20.38;;;;;;;;;;4977708;28;20089;-83
2022/01/19 15:47:05;;;;;;;58.75;21.30;;;;;;;;;;4975604;28;20038;-84
2022/01/19 15:49:31;;;;;;;56.38;23.65;;;;;;;;;;4964421;28;20119;-85
2022/01/19 15:51:57;;;;;;;52.20;20.55;;;;;;;;;;4975075;28;20505;-85
2022/01/19 15:54:23;;;;;;;46.25;18.15;;;;;;;;;;4969389;28;20027;-82
2022/01/19 15:56:50;;;;;;;48.08;19.55;;;;;;;;;;4958250;29;20038;-82